sensor_id;sensor_type;location;lat;lon;timestamp;pressure;altitude;pressure_sealevel;temperature;humidity
5651;BME280;40241;52.684;9.758;2023-05-08T00:01:06;102181.00;;;12.36;55.59
5651;BME280;40241;52.684;9.758;2023-05-08T00:03:31;102159.81;;;12.42;55.49
5651;BME280;40241;52.684;9.758;2023-05-08T00:05:57;102124.47;;;12.32;55.34
5651;BME280;40241;52.684;9.758;2023-05-08T00:08:22;102189.63;;;12.29;55.46
5651;BME280;40241;52.684;9.758;2023-05-08T00:10:47;102154.22;;;12.28;55.63
5651;BME280;40241;52.684;9.758;2023-05-08T00:13:13;102171.44;;;12.23;55.55
5651;BME280;40241;52.684;9.758;2023-05-08T00:15:38;102189.97;;;12.22;55.53
5651;BME280;40241;52.684;9.758;2023-05-08T00:18:04;102141.50;;;12.21;55.58
5651;BME280;40241;52.684;9.758;2023-05-08T00:20:30;102146.44;;;12.17;55.65
5651;BME280;40241;52.684;9.758;2023-05-08T00:22:55;102190.28;;;12.15;55.63
5651;BME280;40241;52.684;9.758;2023-05-08T00:25:22;102154.13;;;12.13;55.53
5651;BME280;40241;52.684;9.758;2023-05-08T00:27:47;102157.50;;;12.08;55.64
5651;BME280;40241;52.684;9.758;2023-05-08T00:30:13;102182.97;;;12.12;55.75
5651;BME280;40241;52.684;9.758;2023-05-08T00:32:38;102127.81;;;12.03;55.63
5651;BME280;40241;52.684;9.758;2023-05-08T00:35:04;102202.91;;;12.07;55.85
5651;BME280;40241;52.684;9.758;2023-05-08T00:37:29;102139.31;;;12.01;55.80
5651;BME280;40241;52.684;9.758;2023-05-08T00:39:55;102151.59;;;12.00;55.74
5651;BME280;40241;52.684;9.758;2023-05-08T00:42:20;102212.56;;;12.02;55.86
5651;BME280;40241;52.684;9.758;2023-05-08T00:44:46;102181.34;;;11.96;55.91
5651;BME280;40241;52.684;9.758;2023-05-08T00:47:12;102166.59;;;11.99;55.83
5651;BME280;40241;52.684;9.758;2023-05-08T00:49:37;102207.97;;;11.99;55.86
5651;BME280;40241;52.684;9.758;2023-05-08T00:52:04;102185.91;;;11.99;55.75
5651;BME280;40241;52.684;9.758;2023-05-08T00:54:34;102170.63;;;11.89;55.86
5651;BME280;40241;52.684;9.758;2023-05-08T00:57:00;102190.69;;;11.90;55.89
5651;BME280;40241;52.684;9.758;2023-05-08T00:59:26;102189.00;;;11.92;55.83
5651;BME280;40241;52.684;9.758;2023-05-08T01:01:52;102200.34;;;11.94;55.78
5651;BME280;40241;52.684;9.758;2023-05-08T01:04:23;102179.19;;;11.91;55.98
5651;BME280;40241;52.684;9.758;2023-05-08T01:06:48;102197.31;;;11.74;55.95
5651;BME280;40241;52.684;9.758;2023-05-08T01:09:14;102189.03;;;11.74;55.88
5651;BME280;40241;52.684;9.758;2023-05-08T01:12:04;102153.31;;;11.80;56.38
5651;BME280;40241;52.684;9.758;2023-05-08T01:17:23;102156.72;;;11.75;56.77
5651;BME280;40241;52.684;9.758;2023-05-08T01:20:18;102150.16;;;11.72;56.63
5651;BME280;40241;52.684;9.758;2023-05-08T01:31:32;102175.25;;;11.56;56.58
5651;BME280;40241;52.684;9.758;2023-05-08T01:34:30;102128.25;;;11.51;56.62
5651;BME280;40241;52.684;9.758;2023-05-08T01:37:00;102169.44;;;11.54;56.09
5651;BME280;40241;52.684;9.758;2023-05-08T01:45:09;102159.81;;;11.41;56.54
5651;BME280;40241;52.684;9.758;2023-05-08T01:47:36;102132.41;;;11.46;56.19
5651;BME280;40241;52.684;9.758;2023-05-08T01:50:03;102134.84;;;11.44;56.23
5651;BME280;40241;52.684;9.758;2023-05-08T01:52:52;102123.22;;;11.40;57.40
5651;BME280;40241;52.684;9.758;2023-05-08T01:55:24;102114.34;;;11.27;56.46
5651;BME280;40241;52.684;9.758;2023-05-08T01:57:53;102124.63;;;11.36;56.43
5651;BME280;40241;52.684;9.758;2023-05-08T02:00:21;102133.31;;;11.43;56.37
5651;BME280;40241;52.684;9.758;2023-05-08T02:02:48;102129.66;;;11.37;56.37
5651;BME280;40241;52.684;9.758;2023-05-08T02:05:17;102132.13;;;11.35;56.29
5651;BME280;40241;52.684;9.758;2023-05-08T02:07:44;102140.97;;;11.39;56.43
5651;BME280;40241;52.684;9.758;2023-05-08T02:10:11;102137.63;;;11.35;56.27
5651;BME280;40241;52.684;9.758;2023-05-08T02:12:37;102129.50;;;11.31;56.50
5651;BME280;40241;52.684;9.758;2023-05-08T02:15:04;102130.28;;;11.32;56.45
5651;BME280;40241;52.684;9.758;2023-05-08T02:17:32;102135.78;;;11.32;56.42
5651;BME280;40241;52.684;9.758;2023-05-08T02:20:01;102149.84;;;11.34;56.47
5651;BME280;40241;52.684;9.758;2023-05-08T02:22:29;102142.84;;;11.33;56.58
5651;BME280;40241;52.684;9.758;2023-05-08T02:24:57;102128.91;;;11.27;56.47
5651;BME280;40241;52.684;9.758;2023-05-08T02:27:24;102140.38;;;11.26;56.57
5651;BME280;40241;52.684;9.758;2023-05-08T02:29:51;102132.13;;;11.26;56.64
5651;BME280;40241;52.684;9.758;2023-05-08T02:32:19;102145.13;;;11.25;56.60
5651;BME280;40241;52.684;9.758;2023-05-08T02:34:50;102139.16;;;11.27;56.58
5651;BME280;40241;52.684;9.758;2023-05-08T02:37:19;102122.16;;;11.28;56.47
5651;BME280;40241;52.684;9.758;2023-05-08T02:39:46;102130.13;;;11.26;56.44
5651;BME280;40241;52.684;9.758;2023-05-08T02:42:12;102118.50;;;11.22;56.62
5651;BME280;40241;52.684;9.758;2023-05-08T02:44:38;102125.09;;;11.16;56.55
5651;BME280;40241;52.684;9.758;2023-05-08T02:47:18;102120.94;;;11.20;56.73
5651;BME280;40241;52.684;9.758;2023-05-08T02:49:54;102122.00;;;11.14;56.79
5651;BME280;40241;52.684;9.758;2023-05-08T02:52:30;102118.66;;;11.10;57.17
5651;BME280;40241;52.684;9.758;2023-05-08T02:55:02;102125.84;;;11.07;56.82
5651;BME280;40241;52.684;9.758;2023-05-08T02:57:40;102127.09;;;11.06;57.14
5651;BME280;40241;52.684;9.758;2023-05-08T03:00:16;102131.38;;;10.98;56.98
5651;BME280;40241;52.684;9.758;2023-05-08T03:02:48;102123.56;;;10.97;57.02
5651;BME280;40241;52.684;9.758;2023-05-08T03:05:19;102116.38;;;10.99;57.00
5651;BME280;40241;52.684;9.758;2023-05-08T03:07:49;102128.63;;;10.98;56.75
5651;BME280;40241;52.684;9.758;2023-05-08T03:10:17;102123.25;;;10.95;56.62
5651;BME280;40241;52.684;9.758;2023-05-08T03:12:45;102129.06;;;10.97;56.77
5651;BME280;40241;52.684;9.758;2023-05-08T03:15:28;102128.31;;;10.96;57.52
5651;BME280;40241;52.684;9.758;2023-05-08T03:18:01;102120.66;;;10.91;57.11
5651;BME280;40241;52.684;9.758;2023-05-08T03:20:31;102133.97;;;10.93;57.01
5651;BME280;40241;52.684;9.758;2023-05-08T03:23:01;102154.59;;;10.88;56.86
5651;BME280;40241;52.684;9.758;2023-05-08T03:25:29;102126.16;;;10.91;57.13
5651;BME280;40241;52.684;9.758;2023-05-08T03:27:55;102130.13;;;10.90;56.82
5651;BME280;40241;52.684;9.758;2023-05-08T03:30:22;102129.81;;;10.88;56.89
5651;BME280;40241;52.684;9.758;2023-05-08T03:32:48;102135.03;;;10.86;56.97
5651;BME280;40241;52.684;9.758;2023-05-08T03:35:15;102137.63;;;10.81;57.14
5651;BME280;40241;52.684;9.758;2023-05-08T03:37:41;102138.22;;;10.76;57.08
5651;BME280;40241;52.684;9.758;2023-05-08T03:40:07;102123.88;;;10.81;57.14
5651;BME280;40241;52.684;9.758;2023-05-08T03:42:33;102131.19;;;10.84;56.91
5651;BME280;40241;52.684;9.758;2023-05-08T03:45:02;102113.75;;;10.78;57.15
5651;BME280;40241;52.684;9.758;2023-05-08T03:47:28;102116.53;;;10.78;57.08
5651;BME280;40241;52.684;9.758;2023-05-08T03:49:54;102124.31;;;10.79;56.91
5651;BME280;40241;52.684;9.758;2023-05-08T03:52:19;102122.03;;;10.78;57.01
5651;BME280;40241;52.684;9.758;2023-05-08T03:54:44;102127.84;;;10.80;57.11
5651;BME280;40241;52.684;9.758;2023-05-08T03:57:11;102120.50;;;10.77;56.96
5651;BME280;40241;52.684;9.758;2023-05-08T04:02:24;102121.72;;;10.76;57.25
5651;BME280;40241;52.684;9.758;2023-05-08T04:05:01;102117.41;;;10.75;57.38
5651;BME280;40241;52.684;9.758;2023-05-08T04:07:47;102119.72;;;10.76;57.56
5651;BME280;40241;52.684;9.758;2023-05-08T04:10:30;102130.75;;;10.76;57.35
5651;BME280;40241;52.684;9.758;2023-05-08T04:13:10;102122.94;;;10.75;57.29
5651;BME280;40241;52.684;9.758;2023-05-08T04:15:38;102130.56;;;10.71;57.06
5651;BME280;40241;52.684;9.758;2023-05-08T04:18:09;102127.81;;;10.71;57.08
5651;BME280;40241;52.684;9.758;2023-05-08T04:20:39;102131.66;;;10.73;57.33
5651;BME280;40241;52.684;9.758;2023-05-08T04:23:05;102124.47;;;10.76;57.14
5651;BME280;40241;52.684;9.758;2023-05-08T04:25:35;102129.81;;;10.79;57.27
5651;BME280;40241;52.684;9.758;2023-05-08T04:28:02;102140.09;;;10.79;57.26
5651;BME280;40241;52.684;9.758;2023-05-08T04:30:28;102125.38;;;10.82;57.05
5651;BME280;40241;52.684;9.758;2023-05-08T04:32:54;102122.19;;;10.83;57.10
5651;BME280;40241;52.684;9.758;2023-05-08T04:35:20;102131.81;;;10.88;57.09
5651;BME280;40241;52.684;9.758;2023-05-08T04:37:46;102129.38;;;10.90;57.09
5651;BME280;40241;52.684;9.758;2023-05-08T04:40:11;102127.84;;;10.89;57.08
5651;BME280;40241;52.684;9.758;2023-05-08T04:42:37;102126.94;;;10.92;57.00
5651;BME280;40241;52.684;9.758;2023-05-08T04:45:04;102134.72;;;10.93;56.92
5651;BME280;40241;52.684;9.758;2023-05-08T04:47:30;102130.00;;;10.94;57.13
5651;BME280;40241;52.684;9.758;2023-05-08T04:49:56;102127.25;;;10.94;57.12
5651;BME280;40241;52.684;9.758;2023-05-08T04:52:21;102128.00;;;10.94;56.95
5651;BME280;40241;52.684;9.758;2023-05-08T04:54:46;102123.25;;;10.95;57.17
5651;BME280;40241;52.684;9.758;2023-05-08T04:57:12;102122.34;;;10.98;57.06
5651;BME280;40241;52.684;9.758;2023-05-08T04:59:37;102123.41;;;11.00;57.04
5651;BME280;40241;52.684;9.758;2023-05-08T05:02:04;102128.75;;;11.04;57.20
5651;BME280;40241;52.684;9.758;2023-05-08T05:04:32;102156.31;;;11.04;57.15
5651;BME280;40241;52.684;9.758;2023-05-08T05:06:58;102127.69;;;11.01;57.06
5651;BME280;40241;52.684;9.758;2023-05-08T05:09:23;102128.59;;;11.07;57.04
5651;BME280;40241;52.684;9.758;2023-05-08T05:11:50;102128.59;;;11.07;57.18
5651;BME280;40241;52.684;9.758;2023-05-08T05:14:15;102130.13;;;11.08;57.12
5651;BME280;40241;52.684;9.758;2023-05-08T05:16:40;102136.25;;;11.12;57.01
5651;BME280;40241;52.684;9.758;2023-05-08T05:19:06;102152.66;;;11.16;57.07
5651;BME280;40241;52.684;9.758;2023-05-08T05:21:31;102139.00;;;11.21;57.04
5651;BME280;40241;52.684;9.758;2023-05-08T05:23:57;102186.63;;;11.22;56.99
5651;BME280;40241;52.684;9.758;2023-05-08T05:26:22;102157.06;;;11.31;56.88
5651;BME280;40241;52.684;9.758;2023-05-08T05:28:48;102154.16;;;11.35;56.90
5651;BME280;40241;52.684;9.758;2023-05-08T05:31:13;102148.66;;;11.35;56.75
5651;BME280;40241;52.684;9.758;2023-05-08T05:33:38;102138.69;;;11.38;56.83
5651;BME280;40241;52.684;9.758;2023-05-08T05:36:04;102145.88;;;11.44;56.89
5651;BME280;40241;52.684;9.758;2023-05-08T05:38:30;102142.50;;;11.49;56.88
5651;BME280;40241;52.684;9.758;2023-05-08T05:40:55;102132.41;;;11.55;56.84
5651;BME280;40241;52.684;9.758;2023-05-08T05:43:21;102139.41;;;11.56;56.75
5651;BME280;40241;52.684;9.758;2023-05-08T05:45:46;102160.09;;;11.61;56.81
5651;BME280;40241;52.684;9.758;2023-05-08T05:48:12;102143.25;;;11.59;56.73
5651;BME280;40241;52.684;9.758;2023-05-08T05:50:37;102160.56;;;11.68;56.48
5651;BME280;40241;52.684;9.758;2023-05-08T05:53:03;102162.84;;;11.70;56.63
5651;BME280;40241;52.684;9.758;2023-05-08T05:55:28;102175.56;;;11.76;56.69
5651;BME280;40241;52.684;9.758;2023-05-08T05:57:54;102152.59;;;11.79;56.65
5651;BME280;40241;52.684;9.758;2023-05-08T06:00:19;102155.00;;;11.86;56.54
5651;BME280;40241;52.684;9.758;2023-05-08T06:02:45;102146.56;;;11.90;56.41
5651;BME280;40241;52.684;9.758;2023-05-08T06:05:11;102155.59;;;11.90;56.36
5651;BME280;40241;52.684;9.758;2023-05-08T06:07:36;102161.53;;;11.98;56.45
5651;BME280;40241;52.684;9.758;2023-05-08T06:10:02;102160.44;;;12.04;56.60
5651;BME280;40241;52.684;9.758;2023-05-08T06:12:27;102166.41;;;12.12;56.63
5651;BME280;40241;52.684;9.758;2023-05-08T06:14:53;102164.69;;;12.15;56.36
5651;BME280;40241;52.684;9.758;2023-05-08T06:17:19;102167.41;;;12.24;56.26
5651;BME280;40241;52.684;9.758;2023-05-08T06:19:45;102166.78;;;12.29;56.37
5651;BME280;40241;52.684;9.758;2023-05-08T06:22:18;102173.19;;;12.35;56.42
5651;BME280;40241;52.684;9.758;2023-05-08T06:24:45;102175.03;;;12.38;56.21
5651;BME280;40241;52.684;9.758;2023-05-08T06:27:11;102176.84;;;12.41;56.19
5651;BME280;40241;52.684;9.758;2023-05-08T06:29:36;102171.28;;;12.50;56.10
5651;BME280;40241;52.684;9.758;2023-05-08T06:32:02;102179.09;;;12.51;56.05
5651;BME280;40241;52.684;9.758;2023-05-08T06:34:27;102157.75;;;12.52;55.99
5651;BME280;40241;52.684;9.758;2023-05-08T06:36:52;102168.28;;;12.62;56.05
5651;BME280;40241;52.684;9.758;2023-05-08T06:39:18;102205.53;;;12.67;55.77
5651;BME280;40241;52.684;9.758;2023-05-08T06:41:46;102174.19;;;12.79;55.73
5651;BME280;40241;52.684;9.758;2023-05-08T06:44:12;102179.66;;;12.88;55.67
5651;BME280;40241;52.684;9.758;2023-05-08T06:46:38;102169.47;;;12.94;55.63
5651;BME280;40241;52.684;9.758;2023-05-08T06:49:03;102182.63;;;12.99;55.68
5651;BME280;40241;52.684;9.758;2023-05-08T06:51:29;102191.81;;;13.05;55.56
5651;BME280;40241;52.684;9.758;2023-05-08T06:53:55;102169.66;;;13.14;55.55
5651;BME280;40241;52.684;9.758;2023-05-08T06:56:20;102170.50;;;13.20;55.57
5651;BME280;40241;52.684;9.758;2023-05-08T06:58:46;102163.66;;;13.30;55.56
5651;BME280;40241;52.684;9.758;2023-05-08T07:01:12;102166.34;;;13.39;55.30
5651;BME280;40241;52.684;9.758;2023-05-08T07:03:38;102173.06;;;13.47;55.41
5651;BME280;40241;52.684;9.758;2023-05-08T07:06:06;102163.63;;;13.54;55.13
5651;BME280;40241;52.684;9.758;2023-05-08T07:08:33;102176.31;;;13.61;55.47
5651;BME280;40241;52.684;9.758;2023-05-08T07:10:58;102175.34;;;13.64;55.21
5651;BME280;40241;52.684;9.758;2023-05-08T07:13:23;102170.19;;;13.71;55.01
5651;BME280;40241;52.684;9.758;2023-05-08T07:15:49;102161.31;;;13.82;54.98
5651;BME280;40241;52.684;9.758;2023-05-08T07:18:14;102170.47;;;13.88;54.85
5651;BME280;40241;52.684;9.758;2023-05-08T07:20:39;102182.38;;;13.94;54.82
5651;BME280;40241;52.684;9.758;2023-05-08T07:23:05;102167.66;;;14.02;54.71
5651;BME280;40241;52.684;9.758;2023-05-08T07:25:31;102155.81;;;14.16;54.74
5651;BME280;40241;52.684;9.758;2023-05-08T07:27:56;102166.88;;;14.31;54.32
5651;BME280;40241;52.684;9.758;2023-05-08T07:30:21;102169.47;;;14.35;54.35
5651;BME280;40241;52.684;9.758;2023-05-08T07:32:47;102170.88;;;14.45;54.31
5651;BME280;40241;52.684;9.758;2023-05-08T07:35:12;102163.66;;;14.53;54.24
5651;BME280;40241;52.684;9.758;2023-05-08T07:37:38;102173.00;;;14.70;54.10
5651;BME280;40241;52.684;9.758;2023-05-08T07:40:03;102157.97;;;14.76;54.16
5651;BME280;40241;52.684;9.758;2023-05-08T07:42:29;102166.13;;;14.85;53.85
5651;BME280;40241;52.684;9.758;2023-05-08T07:44:54;102173.06;;;14.95;53.72
5651;BME280;40241;52.684;9.758;2023-05-08T07:47:20;102154.75;;;15.03;53.50
5651;BME280;40241;52.684;9.758;2023-05-08T07:49:45;102164.44;;;15.14;53.48
5651;BME280;40241;52.684;9.758;2023-05-08T07:52:11;102166.78;;;15.21;53.48
5651;BME280;40241;52.684;9.758;2023-05-08T07:54:36;102164.81;;;15.27;53.30
5651;BME280;40241;52.684;9.758;2023-05-08T07:57:02;102170.22;;;15.36;53.39
5651;BME280;40241;52.684;9.758;2023-05-08T07:59:27;102164.47;;;15.39;53.21
5651;BME280;40241;52.684;9.758;2023-05-08T08:01:52;102165.34;;;15.51;53.26
5651;BME280;40241;52.684;9.758;2023-05-08T08:04:18;102167.53;;;15.67;53.12
5651;BME280;40241;52.684;9.758;2023-05-08T08:06:43;102165.03;;;15.69;52.93
5651;BME280;40241;52.684;9.758;2023-05-08T08:09:08;102159.56;;;15.80;53.01
5651;BME280;40241;52.684;9.758;2023-05-08T08:11:34;102171.56;;;15.97;52.81
5651;BME280;40241;52.684;9.758;2023-05-08T08:13:59;102162.34;;;16.11;52.79
5651;BME280;40241;52.684;9.758;2023-05-08T08:16:24;102172.25;;;16.23;52.38
5651;BME280;40241;52.684;9.758;2023-05-08T08:18:50;102169.56;;;16.34;52.40
5651;BME280;40241;52.684;9.758;2023-05-08T08:21:17;102166.94;;;16.51;52.31
5651;BME280;40241;52.684;9.758;2023-05-08T08:23:42;102178.63;;;16.66;52.13
5651;BME280;40241;52.684;9.758;2023-05-08T08:26:08;102168.03;;;16.76;52.02
5651;BME280;40241;52.684;9.758;2023-05-08T08:28:33;102170.88;;;16.87;51.74
5651;BME280;40241;52.684;9.758;2023-05-08T08:30:58;102169.16;;;16.95;51.63
5651;BME280;40241;52.684;9.758;2023-05-08T08:33:26;102162.63;;;17.03;51.57
5651;BME280;40241;52.684;9.758;2023-05-08T08:35:52;102164.88;;;17.05;51.27
5651;BME280;40241;52.684;9.758;2023-05-08T08:38:17;102161.13;;;17.13;51.39
5651;BME280;40241;52.684;9.758;2023-05-08T08:40:43;102158.63;;;17.21;51.48
5651;BME280;40241;52.684;9.758;2023-05-08T08:43:08;102159.63;;;17.35;51.21
5651;BME280;40241;52.684;9.758;2023-05-08T08:45:35;102154.59;;;17.50;51.03
5651;BME280;40241;52.684;9.758;2023-05-08T08:48:01;102151.38;;;17.68;50.76
5651;BME280;40241;52.684;9.758;2023-05-08T08:50:31;102137.97;;;17.77;50.49
5651;BME280;40241;52.684;9.758;2023-05-08T08:53:25;102136.44;;;17.82;48.73
5651;BME280;40241;52.684;9.758;2023-05-08T08:55:53;102132.66;;;17.90;50.49
5651;BME280;40241;52.684;9.758;2023-05-08T09:00:52;102137.13;;;18.27;50.30
5651;BME280;40241;52.684;9.758;2023-05-08T09:03:20;102133.31;;;18.46;49.77
5651;BME280;40241;52.684;9.758;2023-05-08T09:05:45;102151.25;;;18.62;49.82
5651;BME280;40241;52.684;9.758;2023-05-08T09:08:13;102134.72;;;18.75;49.58
5651;BME280;40241;52.684;9.758;2023-05-08T09:10:39;102168.91;;;18.81;49.32
5651;BME280;40241;52.684;9.758;2023-05-08T09:13:05;102135.88;;;18.96;49.30
5651;BME280;40241;52.684;9.758;2023-05-08T09:15:33;102126.22;;;19.03;48.40
5651;BME280;40241;52.684;9.758;2023-05-08T09:18:02;102118.56;;;19.14;47.65
5651;BME280;40241;52.684;9.758;2023-05-08T09:20:28;102127.56;;;19.31;48.62
5651;BME280;40241;52.684;9.758;2023-05-08T09:22:53;102127.00;;;19.44;48.72
5651;BME280;40241;52.684;9.758;2023-05-08T09:25:19;102130.94;;;19.60;48.35
5651;BME280;40241;52.684;9.758;2023-05-08T09:27:44;102115.56;;;19.77;48.17
5651;BME280;40241;52.684;9.758;2023-05-08T09:30:11;102120.00;;;19.91;47.77
5651;BME280;40241;52.684;9.758;2023-05-08T09:32:40;102112.25;;;20.03;47.38
5651;BME280;40241;52.684;9.758;2023-05-08T09:35:07;102127.47;;;20.07;47.52
5651;BME280;40241;52.684;9.758;2023-05-08T09:37:33;102120.75;;;20.16;47.23
5651;BME280;40241;52.684;9.758;2023-05-08T09:40:20;102123.97;;;20.31;46.30
5651;BME280;40241;52.684;9.758;2023-05-08T09:42:47;102123.31;;;20.44;46.62
5651;BME280;40241;52.684;9.758;2023-05-08T09:45:30;102116.53;;;20.34;44.23
5651;BME280;40241;52.684;9.758;2023-05-08T09:47:56;102112.13;;;20.44;46.92
5651;BME280;40241;52.684;9.758;2023-05-08T09:50:22;102150.38;;;20.54;46.82
5651;BME280;40241;52.684;9.758;2023-05-08T09:52:48;102117.31;;;20.77;46.44
5651;BME280;40241;52.684;9.758;2023-05-08T09:55:13;102129.63;;;20.87;46.27
5651;BME280;40241;52.684;9.758;2023-05-08T09:57:53;102115.09;;;20.88;45.02
5651;BME280;40241;52.684;9.758;2023-05-08T10:00:21;102104.34;;;20.92;45.87
5651;BME280;40241;52.684;9.758;2023-05-08T10:03:12;102118.50;;;21.00;44.49
5651;BME280;40241;52.684;9.758;2023-05-08T10:05:38;102134.19;;;21.09;45.88
5651;BME280;40241;52.684;9.758;2023-05-08T10:08:19;102129.41;;;21.22;43.93
5651;BME280;40241;52.684;9.758;2023-05-08T10:10:45;102116.03;;;21.34;45.54
5651;BME280;40241;52.684;9.758;2023-05-08T10:13:10;102106.34;;;21.48;45.29
5651;BME280;40241;52.684;9.758;2023-05-08T10:15:37;102120.41;;;21.61;44.94
5651;BME280;40241;52.684;9.758;2023-05-08T10:18:05;102112.22;;;21.63;44.97
5651;BME280;40241;52.684;9.758;2023-05-08T10:20:32;102113.31;;;21.60;44.57
5651;BME280;40241;52.684;9.758;2023-05-08T10:22:58;102110.72;;;21.62;44.51
5651;BME280;40241;52.684;9.758;2023-05-08T10:25:25;102104.25;;;21.67;44.54
5651;BME280;40241;52.684;9.758;2023-05-08T10:30:48;102100.06;;;21.74;43.16
5651;BME280;40241;52.684;9.758;2023-05-08T10:33:15;102105.66;;;21.74;44.03
5651;BME280;40241;52.684;9.758;2023-05-08T10:35:44;102099.13;;;21.84;43.92
5651;BME280;40241;52.684;9.758;2023-05-08T10:38:10;102110.81;;;22.01;43.63
5651;BME280;40241;52.684;9.758;2023-05-08T10:40:37;102090.22;;;22.12;43.24
5651;BME280;40241;52.684;9.758;2023-05-08T10:43:02;102084.19;;;22.08;43.17
5651;BME280;40241;52.684;9.758;2023-05-08T10:45:28;102095.84;;;22.25;43.32
5651;BME280;40241;52.684;9.758;2023-05-08T10:48:03;102086.22;;;22.47;41.81
5651;BME280;40241;52.684;9.758;2023-05-08T10:50:35;102094.31;;;22.63;42.47
5651;BME280;40241;52.684;9.758;2023-05-08T10:55:34;102088.38;;;22.67;41.82
5651;BME280;40241;52.684;9.758;2023-05-08T10:58:15;102074.97;;;22.73;40.60
5651;BME280;40241;52.684;9.758;2023-05-08T11:03:30;102081.53;;;23.09;37.66
5651;BME280;40241;52.684;9.758;2023-05-08T11:05:57;102063.47;;;23.18;40.64
5651;BME280;40241;52.684;9.758;2023-05-08T11:08:27;102070.66;;;23.39;39.44
5651;BME280;40241;52.684;9.758;2023-05-08T11:11:01;102070.22;;;23.56;37.44
5651;BME280;40241;52.684;9.758;2023-05-08T11:15:58;102065.59;;;23.87;39.33
5651;BME280;40241;52.684;9.758;2023-05-08T11:18:23;102068.50;;;24.02;39.76
5651;BME280;40241;52.684;9.758;2023-05-08T11:21:00;102073.13;;;24.20;37.79
5651;BME280;40241;52.684;9.758;2023-05-08T11:23:31;102056.06;;;24.18;38.61
5651;BME280;40241;52.684;9.758;2023-05-08T11:26:05;102061.72;;;24.25;37.80
5651;BME280;40241;52.684;9.758;2023-05-08T11:28:55;102058.06;;;24.45;37.79
5651;BME280;40241;52.684;9.758;2023-05-08T11:31:21;102066.00;;;24.62;39.02
5651;BME280;40241;52.684;9.758;2023-05-08T11:33:47;102062.28;;;24.67;38.21
5651;BME280;40241;52.684;9.758;2023-05-08T11:36:17;102058.31;;;24.63;38.24
5651;BME280;40241;52.684;9.758;2023-05-08T11:39:07;102069.00;;;24.64;36.75
5651;BME280;40241;52.684;9.758;2023-05-08T11:41:33;102093.41;;;24.62;38.01
5651;BME280;40241;52.684;9.758;2023-05-08T11:49:04;102051.38;;;24.64;37.81
5651;BME280;40241;52.684;9.758;2023-05-08T11:51:31;102061.50;;;24.59;37.75
5651;BME280;40241;52.684;9.758;2023-05-08T11:53:58;102060.75;;;24.66;38.09
5651;BME280;40241;52.684;9.758;2023-05-08T11:56:23;102056.97;;;24.56;38.02
5651;BME280;40241;52.684;9.758;2023-05-08T11:59:01;102060.50;;;24.49;35.65
5651;BME280;40241;52.684;9.758;2023-05-08T12:01:27;102072.75;;;24.59;37.84
5651;BME280;40241;52.684;9.758;2023-05-08T12:04:09;102073.34;;;24.65;36.40
5651;BME280;40241;52.684;9.758;2023-05-08T12:06:37;102075.41;;;24.65;37.52
5651;BME280;40241;52.684;9.758;2023-05-08T12:09:10;102080.75;;;24.83;36.72
5651;BME280;40241;52.684;9.758;2023-05-08T12:11:36;102084.38;;;25.06;37.11
5651;BME280;40241;52.684;9.758;2023-05-08T12:14:03;102064.84;;;25.23;36.99
5651;BME280;40241;52.684;9.758;2023-05-08T12:16:28;102073.13;;;25.37;36.94
5651;BME280;40241;52.684;9.758;2023-05-08T12:18:55;102084.06;;;25.48;36.64
5651;BME280;40241;52.684;9.758;2023-05-08T12:21:21;102074.28;;;25.56;36.71
5651;BME280;40241;52.684;9.758;2023-05-08T12:23:47;102078.06;;;25.59;36.49
5651;BME280;40241;52.684;9.758;2023-05-08T12:26:12;102065.47;;;25.60;36.25
5651;BME280;40241;52.684;9.758;2023-05-08T12:28:38;102068.09;;;25.65;36.12
5651;BME280;40241;52.684;9.758;2023-05-08T12:31:05;102059.63;;;25.58;35.50
5651;BME280;40241;52.684;9.758;2023-05-08T12:33:32;102067.16;;;25.55;35.70
5651;BME280;40241;52.684;9.758;2023-05-08T12:35:57;102054.94;;;25.53;35.59
5651;BME280;40241;52.684;9.758;2023-05-08T12:38:26;102051.00;;;25.56;35.31
5651;BME280;40241;52.684;9.758;2023-05-08T12:40:52;102072.06;;;25.55;35.35
5651;BME280;40241;52.684;9.758;2023-05-08T12:43:19;102070.72;;;25.56;35.18
5651;BME280;40241;52.684;9.758;2023-05-08T12:45:45;102068.69;;;25.49;35.20
5651;BME280;40241;52.684;9.758;2023-05-08T12:48:13;102059.41;;;25.41;35.57
5651;BME280;40241;52.684;9.758;2023-05-08T12:50:42;102059.25;;;25.31;35.10
5651;BME280;40241;52.684;9.758;2023-05-08T12:53:12;102056.97;;;25.22;34.38
5651;BME280;40241;52.684;9.758;2023-05-08T12:55:39;102074.81;;;25.17;35.44
5651;BME280;40241;52.684;9.758;2023-05-08T13:00:41;102060.19;;;25.41;34.56
5651;BME280;40241;52.684;9.758;2023-05-08T13:03:08;102056.41;;;25.39;35.05
5651;BME280;40241;52.684;9.758;2023-05-08T13:05:35;102054.53;;;25.41;35.27
5651;BME280;40241;52.684;9.758;2023-05-08T13:08:02;102060.56;;;25.45;35.43
5651;BME280;40241;52.684;9.758;2023-05-08T13:10:53;102048.91;;;25.34;32.48
5651;BME280;40241;52.684;9.758;2023-05-08T13:13:21;102044.75;;;25.19;35.85
5651;BME280;40241;52.684;9.758;2023-05-08T13:15:47;102050.41;;;25.27;35.89
5651;BME280;40241;52.684;9.758;2023-05-08T13:18:14;102054.00;;;25.43;35.60
5651;BME280;40241;52.684;9.758;2023-05-08T13:20:40;102051.94;;;25.58;35.21
5651;BME280;40241;52.684;9.758;2023-05-08T13:23:06;102050.25;;;25.63;34.96
5651;BME280;40241;52.684;9.758;2023-05-08T13:25:31;102054.94;;;25.68;34.80
5651;BME280;40241;52.684;9.758;2023-05-08T13:27:57;102042.53;;;25.78;34.88
5651;BME280;40241;52.684;9.758;2023-05-08T13:30:23;102059.41;;;25.93;34.73
5651;BME280;40241;52.684;9.758;2023-05-08T13:32:49;102037.19;;;26.05;34.51
5651;BME280;40241;52.684;9.758;2023-05-08T13:35:15;102035.31;;;26.15;34.35
5651;BME280;40241;52.684;9.758;2023-05-08T13:37:40;102039.41;;;26.22;34.13
5651;BME280;40241;52.684;9.758;2023-05-08T13:40:06;102029.00;;;26.39;34.10
5651;BME280;40241;52.684;9.758;2023-05-08T13:42:31;102027.97;;;26.59;34.15
5651;BME280;40241;52.684;9.758;2023-05-08T13:44:57;102020.94;;;26.76;33.77